Time;durP1;ratioP1;P1;durP2;ratioP2;P2;SDS_P1;SDS_P2;PMS_P1;PMS_P2;Temp;Humidity;BMP_temperature;BMP_pressure;BME280_temperature;BME280_humidity;BME280_pressure;Samples;Min_cycle;Max_cycle;Signal;HPM_P1;HPM_P2
2022/04/20 00:00:36;;;;;;;6.65;3.10;;;;;;;12.39;45.47;101579.88;5064390;28;20073;-45
2022/04/20 00:03:03;;;;;;;4.50;3.40;;;;;;;12.35;45.26;101583.16;5065917;28;20093;-46
2022/04/20 00:05:33;;;;;;;6.25;3.13;;;;;;;12.39;45.42;101584.16;5064935;28;20026;-46
2022/04/20 00:08:01;;;;;;;7.70;3.35;;;;;;;12.34;45.38;101582.28;5066344;28;20040;-47
2022/04/20 00:10:28;;;;;;;6.90;3.25;;;;;;;12.28;45.40;101578.63;5067010;28;20504;-45
2022/04/20 00:12:54;;;;;;;8.70;3.45;;;;;;;12.21;45.69;101587.88;5061819;28;20507;-47
2022/04/20 00:15:19;;;;;;;5.18;3.38;;;;;;;12.20;45.74;101577.53;5063527;28;20033;-44
2022/04/20 00:17:45;;;;;;;7.05;3.30;;;;;;;12.20;45.67;101574.94;5063808;28;20103;-44
2022/04/20 00:20:10;;;;;;;5.22;3.22;;;;;;;12.13;45.87;101572.97;5061897;28;20051;-46
2022/04/20 00:22:36;;;;;;;4.07;3.20;;;;;;;12.00;45.86;101577.72;5063803;28;20028;-46
2022/04/20 00:25:01;;;;;;;6.68;3.58;;;;;;;11.90;46.54;101579.94;5059177;28;20445;-45
2022/04/20 00:27:27;;;;;;;5.30;3.45;;;;;;;11.89;46.39;101581.66;5059713;28;20463;-45
2022/04/20 00:29:52;;;;;;;5.75;3.45;;;;;;;11.85;46.65;101579.78;5058372;28;20086;-46
2022/04/20 00:32:17;;;;;;;5.10;3.60;;;;;;;11.84;46.63;101578.03;5059780;28;20040;-45
2022/04/20 00:34:42;;;;;;;6.10;3.55;;;;;;;11.79;47.09;101579.53;5059054;28;20033;-44
2022/04/20 00:37:08;;;;;;;5.15;3.20;;;;;;;11.79;46.92;101584.69;5061615;28;20040;-44
2022/04/20 00:39:34;;;;;;;3.92;3.08;;;;;;;11.78;46.88;101578.66;5062712;28;20036;-46
2022/04/20 00:41:59;;;;;;;4.55;3.30;;;;;;;11.78;47.03;101580.38;5063349;28;20564;-48
2022/04/20 00:44:25;;;;;;;5.63;3.60;;;;;;;11.75;46.62;101593.13;5065112;28;20028;-48
2022/04/20 00:46:52;;;;;;;6.75;3.33;;;;;;;11.75;46.87;101594.00;5062150;28;20431;-47
2022/04/20 00:49:17;;;;;;;6.25;3.28;;;;;;;11.70;46.95;101587.81;5065643;28;20036;-43
2022/04/20 00:52:00;;;;;;;6.53;3.30;;;;;;;11.69;46.49;101590.34;5062744;28;20038;-44
2022/04/20 00:54:25;;;;;;;5.93;3.80;;;;;;;11.56;47.09;101589.03;5065167;28;20040;-46
2022/04/20 00:56:51;;;;;;;7.10;3.30;;;;;;;11.52;47.16;101589.75;5063879;28;20125;-44
2022/04/20 00:59:20;;;;;;;6.82;3.80;;;;;;;11.54;47.11;101596.72;5059487;28;20028;-46
2022/04/20 01:01:45;;;;;;;5.28;3.33;;;;;;;11.53;46.90;101589.81;5063522;28;20743;-46
2022/04/20 01:04:11;;;;;;;4.05;3.35;;;;;;;11.46;47.20;101589.53;5054120;28;20040;-44
2022/04/20 01:06:36;;;;;;;5.53;3.50;;;;;;;11.45;47.13;101587.78;5063070;28;20059;-45
2022/04/20 01:09:02;;;;;;;6.75;3.80;;;;;;;11.40;47.03;101587.59;5062522;28;21252;-48
2022/04/20 01:11:28;;;;;;;5.18;3.30;;;;;;;11.41;47.42;101591.09;5058538;28;20036;-45
2022/04/20 01:13:54;;;;;;;4.70;3.58;;;;;;;11.38;46.99;101586.69;5068889;28;20028;-45
2022/04/20 01:16:19;;;;;;;9.05;3.35;;;;;;;11.32;47.08;101588.16;5064736;28;20759;-47
2022/04/20 01:18:44;;;;;;;10.05;3.33;;;;;;;11.33;47.23;101587.31;5060019;28;20093;-44
2022/04/20 01:21:11;;;;;;;6.13;3.25;;;;;;;11.25;47.08;101589.63;5065845;28;20046;-47
2022/04/20 01:23:37;;;;;;;5.50;3.35;;;;;;;11.23;47.32;101586.13;5065482;28;20079;-44
2022/04/20 01:26:09;;;;;;;4.78;3.35;;;;;;;11.17;47.39;101589.34;5061840;28;20040;-44
2022/04/20 01:28:36;;;;;;;5.80;3.47;;;;;;;11.15;47.61;101598.69;5066497;28;20662;-45
2022/04/20 01:31:03;;;;;;;4.80;3.28;;;;;;;11.07;47.70;101591.53;5063618;28;20020;-46
2022/04/20 01:33:28;;;;;;;6.38;3.75;;;;;;;10.95;47.47;101590.22;5066450;28;20029;-45
2022/04/20 01:35:54;;;;;;;4.68;3.38;;;;;;;10.94;47.86;101591.06;5063300;28;20039;-47
2022/04/20 01:38:19;;;;;;;4.47;3.40;;;;;;;10.96;47.81;101591.09;5060744;28;20158;-45
2022/04/20 01:40:45;;;;;;;6.63;3.45;;;;;;;10.99;47.85;101592.13;5070182;28;20044;-48
2022/04/20 01:43:10;;;;;;;5.30;3.55;;;;;;;10.94;47.63;101596.22;5068576;28;20031;-48
2022/04/20 01:45:35;;;;;;;4.82;3.33;;;;;;;10.99;47.94;101598.97;5065000;28;20021;-44
2022/04/20 01:48:01;;;;;;;5.97;3.53;;;;;;;10.89;47.83;101600.28;5067652;28;20123;-44
2022/04/20 01:50:26;;;;;;;5.40;3.60;;;;;;;10.86;47.99;101607.00;5069338;28;20035;-44
2022/04/20 01:52:52;;;;;;;5.53;3.22;;;;;;;10.85;47.97;101600.09;5063699;28;20037;-47
2022/04/20 01:55:17;;;;;;;6.25;3.45;;;;;;;10.81;47.95;101603.41;5062321;28;20123;-45
2022/04/20 01:57:43;;;;;;;3.75;3.15;;;;;;;10.78;48.22;101601.56;5065847;28;20052;-45
2022/04/20 02:00:10;;;;;;;5.68;3.70;;;;;;;10.73;48.40;101598.81;5065302;28;20030;-45
2022/04/20 02:02:35;;;;;;;7.38;3.45;;;;;;;10.75;48.12;101598.91;5067545;28;20046;-44
2022/04/20 02:05:05;;;;;;;6.07;3.45;;;;;;;10.72;48.17;101609.03;5065277;28;20028;-46
2022/04/20 02:07:31;;;;;;;6.32;3.58;;;;;;;10.68;48.22;101600.34;5065594;28;20488;-46
2022/04/20 02:09:57;;;;;;;7.03;3.50;;;;;;;10.63;48.02;101601.88;5061276;28;20038;-46
2022/04/20 02:12:23;;;;;;;4.57;3.40;;;;;;;10.56;48.09;101599.88;5064032;28;20037;-46
2022/04/20 02:14:48;;;;;;;3.45;3.00;;;;;;;10.54;48.25;101600.59;5066266;28;21039;-52
2022/04/20 02:17:14;;;;;;;7.70;3.47;;;;;;;10.55;47.88;101594.63;5060704;28;20040;-47
2022/04/20 02:19:39;;;;;;;7.45;3.50;;;;;;;10.44;48.18;101594.25;5064982;28;20029;-45
2022/04/20 02:22:05;;;;;;;7.35;3.40;;;;;;;10.41;48.09;101594.97;5066106;28;20490;-44
2022/04/20 02:24:30;;;;;;;4.65;3.35;;;;;;;10.44;48.24;101589.09;5067540;28;20540;-45
2022/04/20 02:26:56;;;;;;;6.00;3.30;;;;;;;10.46;47.68;101584.88;5059924;28;20509;-48
2022/04/20 02:29:21;;;;;;;4.72;3.25;;;;;;;10.39;47.79;101590.59;5066141;28;20548;-45
2022/04/20 02:31:47;;;;;;;7.18;3.70;;;;;;;10.42;47.99;101593.28;5067964;28;20097;-46
2022/04/20 02:34:12;;;;;;;4.40;3.33;;;;;;;10.39;48.05;101593.16;5062186;28;20029;-44
2022/04/20 02:36:38;;;;;;;5.75;3.67;;;;;;;10.44;47.80;101599.38;5066467;28;20485;-45
2022/04/20 02:39:05;;;;;;;11.25;3.70;;;;;;;10.42;47.62;101586.44;5070426;28;20086;-45
2022/04/20 02:41:32;;;;;;;8.40;3.78;;;;;;;10.36;48.06;101593.03;5070309;28;20056;-44
2022/04/20 02:43:57;;;;;;;4.20;3.03;;;;;;;10.34;47.95;101594.66;5060028;28;20086;-46
2022/04/20 02:46:23;;;;;;;4.70;3.22;;;;;;;10.24;47.98;101595.09;5062128;28;20020;-46
2022/04/20 02:48:49;;;;;;;7.28;3.83;;;;;;;10.14;48.39;101596.41;5066585;28;20496;-44
2022/04/20 02:51:15;;;;;;;8.07;3.60;;;;;;;10.17;48.22;101597.38;5062991;28;20048;-47
2022/04/20 02:53:40;;;;;;;6.18;3.70;;;;;;;10.14;48.44;101597.28;5069354;28;20047;-45
2022/04/20 02:56:06;;;;;;;5.93;3.78;;;;;;;10.07;48.29;101602.06;5065292;28;20040;-45
2022/04/20 02:58:31;;;;;;;4.85;3.78;;;;;;;10.09;48.48;101613.31;5067975;28;20110;-45
2022/04/20 03:00:57;;;;;;;5.45;3.63;;;;;;;10.06;48.38;101611.47;5064554;28;20037;-45
2022/04/20 03:03:22;;;;;;;4.90;3.50;;;;;;;10.06;48.26;101611.47;5062329;28;20040;-45
2022/04/20 03:05:48;;;;;;;8.15;3.70;;;;;;;10.00;48.18;101606.06;5064688;28;20046;-47
2022/04/20 03:08:14;;;;;;;5.03;3.22;;;;;;;9.97;48.26;101612.81;5064246;28;20035;-44
2022/04/20 03:10:39;;;;;;;6.30;3.75;;;;;;;9.96;48.27;101614.50;5064610;28;20036;-45
2022/04/20 03:13:05;;;;;;;4.90;3.47;;;;;;;9.96;48.58;101609.34;5063661;28;20044;-47
2022/04/20 03:15:30;;;;;;;6.25;3.60;;;;;;;9.89;48.35;101613.34;5066349;28;20032;-47
2022/04/20 03:17:57;;;;;;;5.57;3.42;;;;;;;9.87;48.85;101614.97;5064523;28;20036;-45
2022/04/20 03:20:23;;;;;;;5.22;3.40;;;;;;;9.86;48.70;101615.78;5060810;28;20029;-48
2022/04/20 03:22:49;;;;;;;8.55;3.78;;;;;;;9.94;48.61;101624.69;5065758;28;20025;-44
2022/04/20 03:25:14;;;;;;;4.80;3.47;;;;;;;9.95;48.56;101623.03;5065184;28;20579;-50
2022/04/20 03:27:39;;;;;;;7.13;3.55;;;;;;;9.85;48.62;101620.84;5065179;28;20055;-47
2022/04/20 03:30:05;;;;;;;4.80;3.78;;;;;;;9.80;48.71;101624.91;5067385;28;20392;-45
2022/04/20 03:32:31;;;;;;;6.72;3.42;;;;;;;9.74;48.62;101620.38;5064495;28;20036;-45
2022/04/20 03:34:57;;;;;;;4.63;3.50;;;;;;;9.75;49.02;101623.84;5062238;28;20133;-45
2022/04/20 03:37:22;;;;;;;4.65;3.50;;;;;;;9.77;48.85;101632.47;5065825;28;20025;-46
2022/04/20 03:39:48;;;;;;;5.63;3.60;;;;;;;9.70;49.04;101628.75;5066435;28;20067;-46
2022/04/20 03:42:14;;;;;;;6.07;4.03;;;;;;;9.68;48.96;101626.13;5067922;28;20513;-43
2022/04/20 03:44:40;;;;;;;9.05;4.22;;;;;;;9.71;48.63;101624.50;5061914;28;20059;-48
2022/04/20 03:47:06;;;;;;;7.60;4.03;;;;;;;9.67;48.85;101631.22;5065858;28;20073;-48
2022/04/20 03:49:31;;;;;;;4.57;3.33;;;;;;;9.67;48.70;101637.22;5067197;28;20032;-49
2022/04/20 03:51:57;;;;;;;4.82;3.80;;;;;;;9.63;48.99;101640.47;5064174;28;20025;-47
2022/04/20 03:54:22;;;;;;;4.38;3.50;;;;;;;9.58;49.30;101635.94;5058562;28;20047;-48
2022/04/20 03:57:03;;;;;;;5.40;3.72;;;;;;;9.58;49.13;101636.81;5066821;28;20068;-46
2022/04/20 03:59:32;;;;;;;6.60;3.80;;;;;;;9.58;49.12;101635.94;5063089;28;20044;-43
2022/04/20 04:01:58;;;;;;;6.28;3.55;;;;;;;9.59;49.39;101637.72;5063050;28;20115;-44
2022/04/20 04:04:24;;;;;;;5.35;3.60;;;;;;;9.54;49.14;101628.91;5066239;28;20039;-45
2022/04/20 04:06:49;;;;;;;4.88;3.70;;;;;;;9.59;49.00;101640.28;5062227;28;20035;-44
2022/04/20 04:09:15;;;;;;;3.97;3.38;;;;;;;9.53;49.10;101640.88;5066842;28;20389;-45
2022/04/20 04:11:41;;;;;;;6.35;4.10;;;;;;;9.47;49.40;101643.19;5059771;28;20037;-45
2022/04/20 04:14:06;;;;;;;4.75;3.90;;;;;;;9.44;49.32;101634.44;5064467;28;20029;-44
2022/04/20 04:16:36;;;;;;;6.50;3.88;;;;;;;9.46;49.13;101635.38;5063813;28;20032;-47
2022/04/20 04:19:03;;;;;;;8.45;4.10;;;;;;;9.44;49.33;101643.03;5062829;28;20028;-45
2022/04/20 04:21:28;;;;;;;6.70;4.03;;;;;;;9.35;49.33;101642.63;5061140;28;20423;-45
2022/04/20 04:23:53;;;;;;;7.00;3.85;;;;;;;9.31;49.80;101644.16;5067322;28;20071;-46
2022/04/20 04:26:19;;;;;;;8.68;3.70;;;;;;;9.31;49.52;101643.28;5057292;28;20052;-45
2022/04/20 04:28:44;;;;;;;5.60;3.60;;;;;;;9.33;49.44;101645.09;5059194;28;21045;-45
2022/04/20 04:31:10;;;;;;;5.85;4.05;;;;;;;9.33;49.89;101645.09;5054856;28;20508;-44
2022/04/20 04:33:35;;;;;;;10.10;4.03;;;;;;;9.35;49.44;101645.19;5063445;28;20033;-47
2022/04/20 04:36:01;;;;;;;6.07;3.42;;;;;;;9.36;49.72;101644.38;5063486;28;20033;-46
2022/04/20 04:38:27;;;;;;;7.30;3.88;;;;;;;9.37;49.97;101651.25;5062416;28;20102;-47
2022/04/20 04:40:53;;;;;;;5.43;3.60;;;;;;;9.37;49.33;101652.13;5065405;28;20056;-45
2022/04/20 04:43:18;;;;;;;4.88;3.83;;;;;;;9.42;49.75;101665.19;5062368;28;20103;-45
2022/04/20 04:48:36;;;;;;;6.22;3.92;;;;;;;9.43;49.53;101660.94;5058463;28;20093;-45
2022/04/20 04:51:03;;;;;;;7.25;4.07;;;;;;;9.42;49.48;101666.88;5062607;28;20115;-47
2022/04/20 04:53:29;;;;;;;6.57;3.80;;;;;;;9.44;49.31;101663.56;5062449;28;20357;-49
2022/04/20 04:55:54;;;;;;;6.20;3.70;;;;;;;9.40;49.56;101669.34;5063277;28;20052;-46
2022/04/20 04:58:20;;;;;;;7.70;4.10;;;;;;;9.38;49.29;101677.00;5062598;28;20046;-46
2022/04/20 05:00:45;;;;;;;5.13;3.83;;;;;;;9.37;49.86;101671.78;5057064;28;20036;-46
2022/04/20 05:03:11;;;;;;;6.57;3.95;;;;;;;9.33;49.75;101677.59;5057093;28;20131;-45
2022/04/20 05:05:37;;;;;;;6.88;3.65;;;;;;;9.36;50.05;101675.19;5072319;28;20044;-44
2022/04/20 05:08:02;;;;;;;7.30;4.03;;;;;;;9.39;49.63;101685.56;5066704;28;20040;-46
2022/04/20 05:10:28;;;;;;;5.90;4.10;;;;;;;9.39;50.03;101693.28;5062714;28;20036;-49
2022/04/20 05:12:53;;;;;;;6.97;4.10;;;;;;;9.40;49.59;101692.44;5065178;28;20476;-46
2022/04/20 05:15:19;;;;;;;6.03;3.95;;;;;;;9.42;49.48;101695.13;5062101;28;20040;-46
2022/04/20 05:17:44;;;;;;;6.45;4.00;;;;;;;9.36;50.21;101691.44;5065253;28;20810;-45
2022/04/20 05:20:10;;;;;;;6.15;4.28;;;;;;;9.42;49.90;101697.69;5064898;28;20063;-46
2022/04/20 05:22:39;;;;;;;10.20;4.20;;;;;;;9.44;49.64;101698.63;5075031;28;20553;-48
2022/04/20 05:25:05;;;;;;;5.25;4.13;;;;;;;9.42;49.32;101700.25;5054563;28;20460;-46
2022/04/20 05:27:30;;;;;;;6.47;4.10;;;;;;;9.44;49.60;101696.06;5057392;28;20087;-48
2022/04/20 05:29:55;;;;;;;6.45;4.15;;;;;;;9.49;49.28;101700.59;5059428;28;20040;-47
2022/04/20 05:32:21;;;;;;;5.82;3.70;;;;;;;9.43;49.31;101696.88;5068500;28;20438;-46
2022/04/20 05:34:46;;;;;;;6.50;4.32;;;;;;;9.41;49.60;101699.38;5059727;28;20396;-46
2022/04/20 05:42:39;;;;;;;8.90;4.18;;;;;;;9.44;49.64;101691.78;5061662;28;20466;-45
2022/04/20 05:45:05;;;;;;;7.30;4.50;;;;;;;9.51;49.41;101701.53;5063650;28;20120;-44
2022/04/20 05:47:32;;;;;;;6.32;3.97;;;;;;;9.55;49.72;101695.72;5060851;28;20036;-45
2022/04/20 05:49:57;;;;;;;9.40;4.03;;;;;;;9.56;49.56;101706.88;5070050;28;20037;-44
2022/04/20 05:52:23;;;;;;;6.85;4.15;;;;;;;9.60;49.70;101694.25;5068005;28;20051;-46
2022/04/20 05:54:48;;;;;;;6.88;4.00;;;;;;;9.66;49.56;101693.66;5063462;28;20029;-47
2022/04/20 05:57:13;;;;;;;5.78;3.92;;;;;;;9.78;49.51;101694.22;5062058;28;20053;-49
2022/04/20 05:59:39;;;;;;;6.45;4.28;;;;;;;9.85;49.38;101698.81;5069639;28;20024;-45
2022/04/20 06:02:04;;;;;;;8.05;4.20;;;;;;;9.88;49.28;101695.47;5066062;28;20094;-48
2022/04/20 06:04:30;;;;;;;11.55;4.57;;;;;;;9.93;49.01;101699.13;5060690;28;20028;-46
2022/04/20 06:06:56;;;;;;;9.52;4.68;;;;;;;9.98;48.99;101695.06;5070457;28;20056;-47
2022/04/20 06:09:21;;;;;;;6.95;4.15;;;;;;;10.12;48.94;101693.09;5054956;28;20098;-45
2022/04/20 06:11:47;;;;;;;7.20;4.55;;;;;;;10.28;48.59;101690.41;5061163;28;20155;-44
2022/04/20 06:14:12;;;;;;;8.60;4.45;;;;;;;10.37;48.48;101690.78;5060475;28;20107;-45
2022/04/20 06:16:37;;;;;;;9.60;4.53;;;;;;;10.51;48.03;101685.34;5057121;28;20066;-48
2022/04/20 06:19:03;;;;;;;7.47;4.72;;;;;;;10.60;47.83;101690.88;5066751;28;20156;-43
2022/04/20 06:21:28;;;;;;;5.93;4.18;;;;;;;10.71;47.49;101694.75;5065438;28;20074;-48
2022/04/20 06:23:53;;;;;;;6.80;4.13;;;;;;;10.83;47.56;101697.81;5061070;28;20552;-45
2022/04/20 06:26:19;;;;;;;7.57;4.00;;;;;;;10.94;46.67;101693.13;5067202;28;20028;-46
2022/04/20 06:28:44;;;;;;;6.78;4.18;;;;;;;11.10;46.94;101702.28;5066532;28;20086;-45
2022/04/20 06:31:10;;;;;;;6.72;4.15;;;;;;;11.23;46.94;101701.97;5065246;28;20043;-49
2022/04/20 06:33:35;;;;;;;8.30;4.35;;;;;;;11.34;45.85;101700.66;5072319;28;20043;-46
2022/04/20 06:36:01;;;;;;;6.35;3.85;;;;;;;11.45;46.19;101690.78;5066149;28;20028;-45
2022/04/20 06:38:27;;;;;;;6.95;4.05;;;;;;;11.57;47.45;101688.66;5064176;28;20036;-45
2022/04/20 06:40:53;;;;;;;5.80;3.90;;;;;;;11.70;45.20;101693.44;5071852;28;20061;-45
2022/04/20 06:43:20;;;;;;;7.25;3.97;;;;;;;11.85;45.06;101694.88;5059567;28;20464;-46
2022/04/20 06:45:45;;;;;;;11.55;4.07;;;;;;;11.99;45.28;101691.06;5064232;28;20102;-45
2022/04/20 06:48:11;;;;;;;6.63;3.55;;;;;;;12.14;44.51;101699.38;5068993;28;20119;-47
2022/04/20 06:50:36;;;;;;;6.47;3.80;;;;;;;12.30;44.22;101701.63;5067718;28;20039;-46
2022/04/20 06:58:38;;;;;;;7.15;3.53;;;;;;;12.63;43.38;101708.78;5068706;28;20054;-47
2022/04/20 07:01:04;;;;;;;6.55;3.80;;;;;;;12.79;43.36;101703.25;5068634;28;20550;-46
2022/04/20 07:03:31;;;;;;;7.22;3.70;;;;;;;12.95;42.49;101703.75;5063849;28;20028;-48
2022/04/20 07:05:57;;;;;;;9.18;3.70;;;;;;;13.11;42.64;101706.00;5062957;28;20455;-49
2022/04/20 07:08:23;;;;;;;14.23;4.40;;;;;;;13.30;41.87;101702.31;5066548;28;20029;-47
2022/04/20 07:10:49;;;;;;;4.70;3.30;;;;;;;13.40;41.51;101701.75;5067914;28;20041;-47
2022/04/20 07:13:16;;;;;;;5.35;3.35;;;;;;;13.49;40.48;101696.84;5065097;28;20035;-48
2022/04/20 07:15:41;;;;;;;5.25;3.47;;;;;;;13.54;40.68;101700.47;5058941;28;20063;-50
2022/04/20 07:18:07;;;;;;;5.82;3.17;;;;;;;13.59;40.42;101696.31;5061575;28;20489;-48
2022/04/20 07:20:33;;;;;;;6.07;3.60;;;;;;;13.81;40.58;101695.19;5061384;28;20039;-47
2022/04/20 07:22:58;;;;;;;5.63;3.40;;;;;;;13.99;40.55;101700.00;5065620;28;21215;-50
2022/04/20 07:25:25;;;;;;;6.45;3.50;;;;;;;14.14;40.47;101695.25;5068330;28;20076;-48
2022/04/20 07:27:51;;;;;;;5.22;3.28;;;;;;;14.31;40.48;101706.03;5066932;28;20158;-52
2022/04/20 07:30:17;;;;;;;4.90;3.15;;;;;;;14.40;39.57;101703.69;5068665;28;20115;-46
2022/04/20 07:32:43;;;;;;;12.15;3.35;;;;;;;14.58;39.85;101699.84;5063277;28;20024;-47
2022/04/20 07:35:09;;;;;;;5.10;3.30;;;;;;;14.67;40.41;101700.94;5068690;28;20075;-46
2022/04/20 07:37:34;;;;;;;5.32;3.30;;;;;;;14.80;39.47;101702.09;5067080;28;20039;-50
2022/04/20 07:40:00;;;;;;;6.43;3.15;;;;;;;14.82;39.48;101708.22;5065487;28;20508;-49
2022/04/20 07:42:25;;;;;;;7.13;3.28;;;;;;;14.86;38.68;101706.56;5065715;28;20420;-45
2022/04/20 07:44:54;;;;;;;6.10;3.25;;;;;;;14.89;38.42;101706.66;5070229;28;20036;-46
2022/04/20 07:47:22;;;;;;;5.40;3.25;;;;;;;14.89;38.47;101711.81;5066351;28;20032;-49
2022/04/20 07:50:23;;;;;;;7.70;3.45;;;;;;;14.97;39.15;101720.63;5064993;28;20060;-46
2022/04/20 07:52:41;;;;;;;8.10;3.50;;;;;;;14.93;38.64;101722.31;5065376;28;20138;-50
2022/04/20 07:55:11;;;;;;;7.25;3.50;;;;;;;15.02;38.40;101717.31;5065096;28;20034;-46
2022/04/20 07:57:37;;;;;;;3.97;2.90;;;;;;;15.00;38.61;101720.72;5067823;28;20056;-48
2022/04/20 08:00:05;;;;;;;6.35;3.20;;;;;;;15.09;38.55;101712.28;5065144;28;20074;-46
2022/04/20 08:02:30;;;;;;;6.65;3.28;;;;;;;15.14;38.36;101710.69;5065617;28;20085;-48
2022/04/20 08:04:56;;;;;;;7.03;3.40;;;;;;;15.24;38.57;101718.69;5067900;28;20472;-45
2022/04/20 08:07:21;;;;;;;5.75;3.00;;;;;;;15.26;38.10;101717.00;5067242;28;20071;-49
2022/04/20 08:09:47;;;;;;;4.13;3.30;;;;;;;15.36;38.40;101718.09;5063656;28;20028;-47
2022/04/20 08:12:12;;;;;;;7.03;3.55;;;;;;;15.29;37.50;101713.63;5065045;28;20028;-48
2022/04/20 08:14:37;;;;;;;6.38;3.30;;;;;;;15.37;37.44;101716.38;5068300;28;20029;-49
2022/04/20 08:17:03;;;;;;;6.28;3.35;;;;;;;15.42;37.71;101717.38;5067451;28;20060;-49
2022/04/20 08:19:29;;;;;;;7.20;3.42;;;;;;;15.59;38.08;101712.50;5069350;28;20129;-46
2022/04/20 08:21:55;;;;;;;6.32;3.40;;;;;;;15.74;37.53;101715.47;5070476;28;20043;-47
2022/04/20 08:24:21;;;;;;;9.40;3.33;;;;;;;15.76;36.40;101717.25;5060558;28;20493;-47
2022/04/20 08:26:46;;;;;;;7.15;3.13;;;;;;;15.80;36.92;101718.19;5059158;28;20032;-49
2022/04/20 08:29:11;;;;;;;7.30;3.15;;;;;;;15.75;36.79;101714.63;5060793;28;20477;-48
2022/04/20 08:31:37;;;;;;;6.60;3.63;;;;;;;15.68;35.89;101716.22;5065968;28;20044;-48
2022/04/20 08:34:03;;;;;;;4.60;3.22;;;;;;;15.82;36.40;101722.56;5064991;28;20028;-48
2022/04/20 08:36:29;;;;;;;5.20;3.47;;;;;;;15.97;36.82;101718.53;5066058;28;20469;-49
2022/04/20 08:38:54;;;;;;;4.00;3.20;;;;;;;16.09;36.48;101722.25;5064651;28;20070;-49
2022/04/20 08:41:19;;;;;;;7.90;3.28;;;;;;;16.07;35.72;101726.50;5058654;28;20087;-50
2022/04/20 08:43:45;;;;;;;7.20;3.40;;;;;;;15.98;35.04;101725.47;5067669;28;20039;-49
2022/04/20 08:46:11;;;;;;;4.28;3.25;;;;;;;15.95;35.59;101717.59;5063688;28;20111;-45
2022/04/20 08:48:37;;;;;;;4.95;3.30;;;;;;;16.18;35.66;101725.84;5065390;28;20154;-45
2022/04/20 08:51:05;;;;;;;5.53;3.53;;;;;;;16.29;35.26;101724.31;5064813;28;20044;-48
2022/04/20 08:53:30;;;;;;;7.25;3.58;;;;;;;16.34;34.45;101722.69;5063753;28;20107;-47
2022/04/20 08:58:46;;;;;;;5.65;3.72;;;;;;;16.57;33.42;101712.72;5053345;28;20503;-45
2022/04/20 09:01:13;;;;;;;6.95;3.80;;;;;;;16.63;33.91;101716.28;5058564;28;20025;-48
2022/04/20 09:03:39;;;;;;;9.55;4.03;;;;;;;16.61;32.77;101720.56;5064861;28;20055;-48
2022/04/20 09:06:06;;;;;;;5.95;4.13;;;;;;;16.58;32.01;101712.72;5065381;28;20149;-49
2022/04/20 09:08:33;;;;;;;7.95;3.88;;;;;;;16.53;33.24;101719.56;5061006;28;20481;-47
2022/04/20 09:11:00;;;;;;;5.88;4.00;;;;;;;16.64;33.09;101709.38;5065281;28;20400;-48
2022/04/20 09:13:39;;;;;;;6.25;3.58;;;;;;;16.68;33.42;101708.53;5064520;28;20028;-46
2022/04/20 09:16:10;;;;;;;4.68;3.58;;;;;;;16.81;33.61;101700.16;5064118;28;20036;-49
2022/04/20 09:18:36;;;;;;;8.05;3.42;;;;;;;16.82;33.71;101704.50;5060576;28;20029;-46
2022/04/20 09:21:07;;;;;;;9.15;3.30;;;;;;;16.91;33.73;101708.09;5065640;28;20024;-48
2022/04/20 09:23:33;;;;;;;6.57;3.60;;;;;;;16.91;33.19;101708.97;5063466;28;20047;-46
2022/04/20 09:26:08;;;;;;;7.40;3.85;;;;;;;16.99;33.50;101704.78;5066939;28;20052;-47
2022/04/20 09:28:34;;;;;;;8.07;3.35;;;;;;;16.89;33.07;101697.69;5063433;28;20040;-47
2022/04/20 09:30:59;;;;;;;6.93;3.03;;;;;;;16.89;32.40;101701.16;5069764;28;20033;-50
2022/04/20 09:33:45;;;;;;;7.25;3.30;;;;;;;16.95;33.40;101700.38;5054634;28;20109;-47
2022/04/20 09:36:12;;;;;;;6.07;3.47;;;;;;;17.08;33.53;101697.09;5059795;28;20029;-49
2022/04/20 09:38:41;;;;;;;6.75;3.20;;;;;;;17.16;32.78;101690.28;5070614;28;20625;-49
2022/04/20 09:41:08;;;;;;;8.05;3.53;;;;;;;17.25;32.96;101689.53;5068474;28;20028;-47
2022/04/20 09:43:34;;;;;;;6.90;3.25;;;;;;;17.24;33.00;101689.53;5064329;28;20040;-48
2022/04/20 09:49:09;;;;;;;5.38;2.92;;;;;;;17.39;32.05;101687.13;5065329;28;20047;-48
2022/04/20 09:51:37;;;;;;;4.43;2.47;;;;;;;17.27;30.71;101685.22;5066777;28;20439;-48
2022/04/20 09:54:02;;;;;;;7.15;2.83;;;;;;;17.33;32.11;101677.50;5064897;28;20134;-49
2022/04/20 09:56:28;;;;;;;5.80;3.25;;;;;;;17.37;32.60;101687.13;5059369;28;20508;-48
2022/04/20 09:59:04;;;;;;;5.50;2.78;;;;;;;17.27;32.35;101680.03;5069434;28;20044;-48
2022/04/20 10:01:36;;;;;;;6.22;2.95;;;;;;;17.29;32.25;101674.84;5067302;28;20052;-47
2022/04/20 10:04:06;;;;;;;7.35;3.30;;;;;;;17.50;32.89;101679.47;5071010;28;20548;-46
2022/04/20 10:06:32;;;;;;;3.83;2.67;;;;;;;17.54;31.83;101676.06;5056818;28;20657;-47
2022/04/20 10:08:59;;;;;;;4.60;2.58;;;;;;;17.49;32.36;101676.00;5068523;28;20078;-48
2022/04/20 10:11:27;;;;;;;6.05;2.80;;;;;;;17.61;32.69;101678.75;5072153;28;20508;-45
2022/04/20 10:16:39;;;;;;;5.55;2.67;;;;;;;17.49;31.00;101668.19;5067557;28;20117;-47
2022/04/20 10:19:12;;;;;;;4.18;2.58;;;;;;;17.62;32.63;101664.00;5071588;28;20040;-46
2022/04/20 10:21:47;;;;;;;5.55;2.50;;;;;;;17.58;31.75;101657.88;5073468;28;20028;-47
2022/04/20 10:24:16;;;;;;;4.03;2.42;;;;;;;17.54;31.14;101650.94;5064125;28;20043;-47
2022/04/20 10:26:43;;;;;;;4.35;2.58;;;;;;;17.62;31.20;101661.41;5050128;28;20090;-45
2022/04/20 10:29:50;;;;;;;4.13;2.10;;;;;;;17.74;31.93;101652.91;5048764;28;20042;-48
2022/04/20 10:32:23;;;;;;;3.25;2.60;;;;;;;17.72;31.61;101647.72;5050281;28;20396;-47
2022/04/20 10:34:52;;;;;;;3.13;2.40;;;;;;;17.83;31.67;101653.00;5055359;28;20028;-45
2022/04/20 10:37:22;;;;;;;4.10;2.42;;;;;;;17.91;31.29;101640.97;5049001;28;20028;-48
2022/04/20 10:39:47;;;;;;;4.07;2.70;;;;;;;18.16;31.67;101642.06;5051080;28;20506;-48
2022/04/20 10:42:14;;;;;;;5.55;2.78;;;;;;;18.32;31.43;101635.25;5051049;28;20032;-50
2022/04/20 10:44:55;;;;;;;5.13;2.55;;;;;;;18.46;30.71;101641.47;5056736;28;20024;-46
2022/04/20 10:47:38;;;;;;;5.97;2.53;;;;;;;18.33;30.75;101639.63;5065953;28;20391;-48
2022/04/20 10:50:15;;;;;;;4.60;2.40;;;;;;;18.26;30.91;101641.31;5067380;28;20016;-45
2022/04/20 10:52:45;;;;;;;3.47;2.47;;;;;;;18.29;31.03;101648.25;5063257;28;20032;-49
2022/04/20 10:55:11;;;;;;;5.10;2.40;;;;;;;18.27;30.72;101629.16;5065038;28;20020;-46
2022/04/20 10:57:38;;;;;;;4.75;2.40;;;;;;;18.61;30.96;101631.16;5067033;28;20049;-46
2022/04/20 11:00:19;;;;;;;7.90;3.13;;;;;;;18.79;30.95;101624.38;5056529;28;20470;-48
2022/04/20 11:03:11;;;;;;;4.18;2.83;;;;;;;18.92;31.36;101624.44;5070583;28;20107;-45
2022/04/20 11:05:53;;;;;;;6.03;2.92;;;;;;;19.23;31.22;101617.69;5068567;28;20025;-46
2022/04/20 11:08:20;;;;;;;6.35;2.50;;;;;;;19.25;30.05;101622.88;5065520;28;20059;-46
2022/04/20 11:19:54;;;;;;;3.83;2.80;;;;;;;19.40;29.87;101616.84;5064326;28;20102;-45
2022/04/20 11:22:21;;;;;;;4.20;2.63;;;;;;;19.68;30.04;101607.41;5065349;28;20055;-46
2022/04/20 11:24:48;;;;;;;6.60;3.17;;;;;;;19.79;29.47;101609.19;5065949;28;20029;-46
2022/04/20 11:27:13;;;;;;;5.55;3.00;;;;;;;19.88;29.04;101602.22;5066648;28;20103;-49
2022/04/20 11:29:43;;;;;;;7.47;2.97;;;;;;;19.80;28.98;101603.09;5064614;28;20127;-46
2022/04/20 11:32:10;;;;;;;5.65;2.95;;;;;;;19.74;29.56;101600.47;5066585;28;20032;-48
2022/04/20 11:34:36;;;;;;;4.70;3.03;;;;;;;19.88;29.55;101607.44;5068039;28;20516;-49
2022/04/20 11:37:06;;;;;;;7.75;2.95;;;;;;;19.90;29.35;101604.00;5068179;28;20024;-45
2022/04/20 11:39:32;;;;;;;5.45;2.85;;;;;;;20.01;29.07;101598.75;5069515;28;20017;-46
2022/04/20 11:41:59;;;;;;;3.40;3.10;;;;;;;20.11;28.98;101592.69;5065830;28;20393;-46
2022/04/20 11:44:28;;;;;;;3.97;2.70;;;;;;;20.43;29.00;101592.66;5063817;28;20047;-48
2022/04/20 11:47:04;;;;;;;5.40;2.95;;;;;;;20.67;28.56;101583.94;5059437;28;20027;-46
2022/04/20 11:49:42;;;;;;;4.40;2.63;;;;;;;21.16;28.26;101586.41;5055616;28;20526;-47
2022/04/20 11:52:13;;;;;;;4.05;2.90;;;;;;;21.30;27.76;101574.19;5066580;28;20489;-48
2022/04/20 11:54:40;;;;;;;6.07;2.83;;;;;;;21.10;27.73;101565.50;5065575;28;20028;-46
2022/04/20 11:57:07;;;;;;;6.30;3.10;;;;;;;20.65;28.13;101577.00;5064903;28;20417;-50